<?xml version="1.0" encoding="UTF-8" standalone="no" ?>
<gpx xmlns="http://www.topografix.com/GPX/1/1" xmlns:xsi="http://www.w3.org/2001/XMLSchema-instance" xsi:schemaLocation="http://www.topografix.com/GPX/1/1 http://www.topografix.com/GPX/1/1/gpx.xsd" version="1.1" creator="VisuGPX - https://www.visugpx.com">
  <metadata>
    <name>Circuit du Giordanet</name>
    <desc><![CDATA[Un parcours proposé par Conseil général du 06. ]]></desc>
  </metadata>
  <trk>
    <name><![CDATA[9908696-Circuit du Giordanet]]></name>
    <trkseg>
      <trkpt lat="44.0265" lon="6.81352">
        <ele>670</ele>
        <time>2019-05-04T10:21:11Z</time>
      </trkpt>
      <trkpt lat="44.02629" lon="6.81405">
        <ele>664</ele>
        <time>2019-05-04T10:22:11Z</time>
      </trkpt>
      <trkpt lat="44.02631" lon="6.81406">
        <ele>665</ele>
        <time>2019-05-04T10:23:11Z</time>
      </trkpt>
      <trkpt lat="44.0263" lon="6.81414">
        <ele>664</ele>
        <time>2019-05-04T10:24:11Z</time>
      </trkpt>
      <trkpt lat="44.0263" lon="6.81439">
        <ele>661</ele>
        <time>2019-05-04T10:25:11Z</time>
      </trkpt>
      <trkpt lat="44.02629" lon="6.81489">
        <ele>654</ele>
        <time>2019-05-04T10:26:11Z</time>
      </trkpt>
      <trkpt lat="44.02736" lon="6.81659">
        <ele>660</ele>
        <time>2019-05-04T10:27:11Z</time>
      </trkpt>
      <trkpt lat="44.02736" lon="6.81659">
        <ele>660</ele>
        <time>2019-05-04T10:28:11Z</time>
      </trkpt>
      <trkpt lat="44.02746" lon="6.81741">
        <ele>651</ele>
        <time>2019-05-04T10:29:11Z</time>
      </trkpt>
      <trkpt lat="44.02745" lon="6.8174">
        <ele>651</ele>
        <time>2019-05-04T10:30:11Z</time>
      </trkpt>
      <trkpt lat="44.02737" lon="6.81744">
        <ele>650</ele>
        <time>2019-05-04T10:31:11Z</time>
      </trkpt>
      <trkpt lat="44.02714" lon="6.81769">
        <ele>646</ele>
        <time>2019-05-04T10:32:11Z</time>
      </trkpt>
      <trkpt lat="44.0271" lon="6.81787">
        <ele>645</ele>
        <time>2019-05-04T10:33:11Z</time>
      </trkpt>
      <trkpt lat="44.02732" lon="6.81854">
        <ele>643</ele>
        <time>2019-05-04T10:34:11Z</time>
      </trkpt>
      <trkpt lat="44.0274" lon="6.81909">
        <ele>644</ele>
        <time>2019-05-04T10:35:11Z</time>
      </trkpt>
      <trkpt lat="44.02786" lon="6.8204">
        <ele>649</ele>
        <time>2019-05-04T10:36:11Z</time>
      </trkpt>
      <trkpt lat="44.02817" lon="6.82065">
        <ele>652</ele>
        <time>2019-05-04T10:37:11Z</time>
      </trkpt>
      <trkpt lat="44.02856" lon="6.82088">
        <ele>661</ele>
        <time>2019-05-04T10:38:11Z</time>
      </trkpt>
      <trkpt lat="44.0288" lon="6.8214">
        <ele>665</ele>
        <time>2019-05-04T10:39:11Z</time>
      </trkpt>
      <trkpt lat="44.02924" lon="6.82213">
        <ele>667</ele>
        <time>2019-05-04T10:40:11Z</time>
      </trkpt>
      <trkpt lat="44.02946" lon="6.82256">
        <ele>666</ele>
        <time>2019-05-04T10:41:11Z</time>
      </trkpt>
      <trkpt lat="44.02988" lon="6.823">
        <ele>671</ele>
        <time>2019-05-04T10:42:11Z</time>
      </trkpt>
      <trkpt lat="44.03007" lon="6.82334">
        <ele>668</ele>
        <time>2019-05-04T10:43:11Z</time>
      </trkpt>
      <trkpt lat="44.03022" lon="6.82396">
        <ele>667</ele>
        <time>2019-05-04T10:44:11Z</time>
      </trkpt>
      <trkpt lat="44.03093" lon="6.8255">
        <ele>669</ele>
        <time>2019-05-04T10:45:11Z</time>
      </trkpt>
      <trkpt lat="44.03025" lon="6.82696">
        <ele>665</ele>
        <time>2019-05-04T10:46:11Z</time>
      </trkpt>
      <trkpt lat="44.02995" lon="6.82698">
        <ele>668</ele>
        <time>2019-05-04T10:47:11Z</time>
      </trkpt>
      <trkpt lat="44.02955" lon="6.82753">
        <ele>682</ele>
        <time>2019-05-04T10:48:11Z</time>
      </trkpt>
      <trkpt lat="44.0296" lon="6.8276">
        <ele>684</ele>
        <time>2019-05-04T10:49:11Z</time>
      </trkpt>
      <trkpt lat="44.02993" lon="6.82726">
        <ele>675</ele>
        <time>2019-05-04T10:50:11Z</time>
      </trkpt>
      <trkpt lat="44.03004" lon="6.82723">
        <ele>674</ele>
        <time>2019-05-04T10:51:11Z</time>
      </trkpt>
      <trkpt lat="44.03039" lon="6.82725">
        <ele>671</ele>
        <time>2019-05-04T10:52:11Z</time>
      </trkpt>
      <trkpt lat="44.03045" lon="6.8273">
        <ele>671</ele>
        <time>2019-05-04T10:53:11Z</time>
      </trkpt>
      <trkpt lat="44.03018" lon="6.82764">
        <ele>684</ele>
        <time>2019-05-04T10:54:11Z</time>
      </trkpt>
      <trkpt lat="44.03046" lon="6.82762">
        <ele>680</ele>
        <time>2019-05-04T10:55:11Z</time>
      </trkpt>
      <trkpt lat="44.03064" lon="6.82777">
        <ele>681</ele>
        <time>2019-05-04T10:56:11Z</time>
      </trkpt>
      <trkpt lat="44.03043" lon="6.8278">
        <ele>685</ele>
        <time>2019-05-04T10:57:11Z</time>
      </trkpt>
      <trkpt lat="44.03049" lon="6.8279">
        <ele>687</ele>
        <time>2019-05-04T10:58:11Z</time>
      </trkpt>
      <trkpt lat="44.0303" lon="6.82809">
        <ele>696</ele>
        <time>2019-05-04T10:59:11Z</time>
      </trkpt>
      <trkpt lat="44.03011" lon="6.82851">
        <ele>714</ele>
        <time>2019-05-04T11:00:11Z</time>
      </trkpt>
      <trkpt lat="44.03014" lon="6.82852">
        <ele>713</ele>
        <time>2019-05-04T11:01:11Z</time>
      </trkpt>
      <trkpt lat="44.03034" lon="6.82847">
        <ele>708</ele>
        <time>2019-05-04T11:02:11Z</time>
      </trkpt>
      <trkpt lat="44.03045" lon="6.8285">
        <ele>706</ele>
        <time>2019-05-04T11:03:11Z</time>
      </trkpt>
      <trkpt lat="44.0303" lon="6.82875">
        <ele>718</ele>
        <time>2019-05-04T11:04:11Z</time>
      </trkpt>
      <trkpt lat="44.03049" lon="6.82876">
        <ele>714</ele>
        <time>2019-05-04T11:05:11Z</time>
      </trkpt>
      <trkpt lat="44.03051" lon="6.82887">
        <ele>717</ele>
        <time>2019-05-04T11:06:11Z</time>
      </trkpt>
      <trkpt lat="44.03048" lon="6.82894">
        <ele>720</ele>
        <time>2019-05-04T11:07:11Z</time>
      </trkpt>
      <trkpt lat="44.0304" lon="6.82898">
        <ele>723</ele>
        <time>2019-05-04T11:08:11Z</time>
      </trkpt>
      <trkpt lat="44.03045" lon="6.82913">
        <ele>726</ele>
        <time>2019-05-04T11:09:11Z</time>
      </trkpt>
      <trkpt lat="44.0302" lon="6.82918">
        <ele>734</ele>
        <time>2019-05-04T11:10:11Z</time>
      </trkpt>
      <trkpt lat="44.03024" lon="6.82936">
        <ele>739</ele>
        <time>2019-05-04T11:11:11Z</time>
      </trkpt>
      <trkpt lat="44.03003" lon="6.82953">
        <ele>751</ele>
        <time>2019-05-04T11:12:11Z</time>
      </trkpt>
      <trkpt lat="44.02992" lon="6.82982">
        <ele>760</ele>
        <time>2019-05-04T11:13:11Z</time>
      </trkpt>
      <trkpt lat="44.02994" lon="6.82988">
        <ele>763</ele>
        <time>2019-05-04T11:14:11Z</time>
      </trkpt>
      <trkpt lat="44.02981" lon="6.83032">
        <ele>771</ele>
        <time>2019-05-04T11:15:11Z</time>
      </trkpt>
      <trkpt lat="44.02982" lon="6.83045">
        <ele>774</ele>
        <time>2019-05-04T11:16:11Z</time>
      </trkpt>
      <trkpt lat="44.02993" lon="6.83037">
        <ele>776</ele>
        <time>2019-05-04T11:17:11Z</time>
      </trkpt>
      <trkpt lat="44.02995" lon="6.8313">
        <ele>795</ele>
        <time>2019-05-04T11:18:11Z</time>
      </trkpt>
      <trkpt lat="44.02937" lon="6.83248">
        <ele>809</ele>
        <time>2019-05-04T11:19:11Z</time>
      </trkpt>
      <trkpt lat="44.02939" lon="6.83307">
        <ele>826</ele>
        <time>2019-05-04T11:20:11Z</time>
      </trkpt>
      <trkpt lat="44.02918" lon="6.83341">
        <ele>827</ele>
        <time>2019-05-04T11:21:11Z</time>
      </trkpt>
      <trkpt lat="44.02921" lon="6.83364">
        <ele>836</ele>
        <time>2019-05-04T11:22:11Z</time>
      </trkpt>
      <trkpt lat="44.02907" lon="6.83424">
        <ele>850</ele>
        <time>2019-05-04T11:23:11Z</time>
      </trkpt>
      <trkpt lat="44.0288" lon="6.83457">
        <ele>850</ele>
        <time>2019-05-04T11:24:11Z</time>
      </trkpt>
      <trkpt lat="44.02892" lon="6.83485">
        <ele>865</ele>
        <time>2019-05-04T11:25:11Z</time>
      </trkpt>
      <trkpt lat="44.02896" lon="6.83536">
        <ele>883</ele>
        <time>2019-05-04T11:26:11Z</time>
      </trkpt>
      <trkpt lat="44.02886" lon="6.83552">
        <ele>886</ele>
        <time>2019-05-04T11:27:11Z</time>
      </trkpt>
      <trkpt lat="44.02878" lon="6.83544">
        <ele>881</ele>
        <time>2019-05-04T11:28:11Z</time>
      </trkpt>
      <trkpt lat="44.02858" lon="6.83542">
        <ele>876</ele>
        <time>2019-05-04T11:29:11Z</time>
      </trkpt>
      <trkpt lat="44.02848" lon="6.83561">
        <ele>881</ele>
        <time>2019-05-04T11:30:11Z</time>
      </trkpt>
      <trkpt lat="44.02832" lon="6.83556">
        <ele>876</ele>
        <time>2019-05-04T11:31:11Z</time>
      </trkpt>
      <trkpt lat="44.02826" lon="6.83559">
        <ele>877</ele>
        <time>2019-05-04T11:32:11Z</time>
      </trkpt>
      <trkpt lat="44.02761" lon="6.83604">
        <ele>897</ele>
        <time>2019-05-04T11:33:11Z</time>
      </trkpt>
      <trkpt lat="44.02742" lon="6.83651">
        <ele>912</ele>
        <time>2019-05-04T11:34:11Z</time>
      </trkpt>
      <trkpt lat="44.02723" lon="6.83668">
        <ele>915</ele>
        <time>2019-05-04T11:35:11Z</time>
      </trkpt>
      <trkpt lat="44.02724" lon="6.83681">
        <ele>919</ele>
        <time>2019-05-04T11:36:11Z</time>
      </trkpt>
      <trkpt lat="44.02709" lon="6.83683">
        <ele>917</ele>
        <time>2019-05-04T11:37:11Z</time>
      </trkpt>
      <trkpt lat="44.02715" lon="6.8369">
        <ele>920</ele>
        <time>2019-05-04T11:38:11Z</time>
      </trkpt>
      <trkpt lat="44.02714" lon="6.83699">
        <ele>922</ele>
        <time>2019-05-04T11:39:11Z</time>
      </trkpt>
      <trkpt lat="44.027" lon="6.83704">
        <ele>921</ele>
        <time>2019-05-04T11:40:11Z</time>
      </trkpt>
      <trkpt lat="44.02688" lon="6.83717">
        <ele>923</ele>
        <time>2019-05-04T11:41:11Z</time>
      </trkpt>
      <trkpt lat="44.02666" lon="6.8376">
        <ele>932</ele>
        <time>2019-05-04T11:42:11Z</time>
      </trkpt>
      <trkpt lat="44.02668" lon="6.83759">
        <ele>932</ele>
        <time>2019-05-04T11:43:11Z</time>
      </trkpt>
      <trkpt lat="44.02655" lon="6.83811">
        <ele>945</ele>
        <time>2019-05-04T11:44:11Z</time>
      </trkpt>
      <trkpt lat="44.02646" lon="6.83828">
        <ele>949</ele>
        <time>2019-05-04T11:45:11Z</time>
      </trkpt>
      <trkpt lat="44.0261" lon="6.83841">
        <ele>951</ele>
        <time>2019-05-04T11:46:11Z</time>
      </trkpt>
      <trkpt lat="44.02595" lon="6.83841">
        <ele>950</ele>
        <time>2019-05-04T11:47:11Z</time>
      </trkpt>
      <trkpt lat="44.02565" lon="6.83847">
        <ele>949</ele>
        <time>2019-05-04T11:48:11Z</time>
      </trkpt>
      <trkpt lat="44.02565" lon="6.83859">
        <ele>952</ele>
        <time>2019-05-04T11:49:11Z</time>
      </trkpt>
      <trkpt lat="44.02553" lon="6.83888">
        <ele>958</ele>
        <time>2019-05-04T11:50:11Z</time>
      </trkpt>
      <trkpt lat="44.02526" lon="6.83943">
        <ele>965</ele>
        <time>2019-05-04T11:51:11Z</time>
      </trkpt>
      <trkpt lat="44.02526" lon="6.8399">
        <ele>974</ele>
        <time>2019-05-04T11:52:11Z</time>
      </trkpt>
      <trkpt lat="44.02491" lon="6.84088">
        <ele>983</ele>
        <time>2019-05-04T11:53:11Z</time>
      </trkpt>
      <trkpt lat="44.02475" lon="6.84093">
        <ele>983</ele>
        <time>2019-05-04T11:54:11Z</time>
      </trkpt>
      <trkpt lat="44.02459" lon="6.84093">
        <ele>982</ele>
        <time>2019-05-04T11:55:11Z</time>
      </trkpt>
      <trkpt lat="44.02458" lon="6.84139">
        <ele>994</ele>
        <time>2019-05-04T11:56:11Z</time>
      </trkpt>
      <trkpt lat="44.02449" lon="6.84156">
        <ele>997</ele>
        <time>2019-05-04T11:57:11Z</time>
      </trkpt>
      <trkpt lat="44.02439" lon="6.84159">
        <ele>998</ele>
        <time>2019-05-04T11:58:11Z</time>
      </trkpt>
      <trkpt lat="44.0244" lon="6.84195">
        <ele>1009</ele>
        <time>2019-05-04T11:59:11Z</time>
      </trkpt>
      <trkpt lat="44.02428" lon="6.84212">
        <ele>1013</ele>
        <time>2019-05-04T12:00:11Z</time>
      </trkpt>
      <trkpt lat="44.02432" lon="6.84226">
        <ele>1018</ele>
        <time>2019-05-04T12:01:11Z</time>
      </trkpt>
      <trkpt lat="44.02413" lon="6.84253">
        <ele>1025</ele>
        <time>2019-05-04T12:02:11Z</time>
      </trkpt>
      <trkpt lat="44.02426" lon="6.8426">
        <ele>1027</ele>
        <time>2019-05-04T12:03:11Z</time>
      </trkpt>
      <trkpt lat="44.02391" lon="6.84317">
        <ele>1040</ele>
        <time>2019-05-04T12:04:11Z</time>
      </trkpt>
      <trkpt lat="44.02378" lon="6.84379">
        <ele>1053</ele>
        <time>2019-05-04T12:05:11Z</time>
      </trkpt>
      <trkpt lat="44.02387" lon="6.84459">
        <ele>1071</ele>
        <time>2019-05-04T12:06:11Z</time>
      </trkpt>
      <trkpt lat="44.02389" lon="6.84588">
        <ele>1097</ele>
        <time>2019-05-04T12:07:11Z</time>
      </trkpt>
      <trkpt lat="44.0237" lon="6.84687">
        <ele>1122</ele>
        <time>2019-05-04T12:08:11Z</time>
      </trkpt>
      <trkpt lat="44.02396" lon="6.84791">
        <ele>1155</ele>
        <time>2019-05-04T12:09:11Z</time>
      </trkpt>
      <trkpt lat="44.02392" lon="6.84847">
        <ele>1164</ele>
        <time>2019-05-04T12:10:11Z</time>
      </trkpt>
      <trkpt lat="44.02384" lon="6.84895">
        <ele>1170</ele>
        <time>2019-05-04T12:11:11Z</time>
      </trkpt>
      <trkpt lat="44.02357" lon="6.84888">
        <ele>1168</ele>
        <time>2019-05-04T12:12:11Z</time>
      </trkpt>
      <trkpt lat="44.02329" lon="6.84857">
        <ele>1164</ele>
        <time>2019-05-04T12:13:11Z</time>
      </trkpt>
      <trkpt lat="44.02294" lon="6.84806">
        <ele>1169</ele>
        <time>2019-05-04T12:14:11Z</time>
      </trkpt>
      <trkpt lat="44.02311" lon="6.84888">
        <ele>1178</ele>
        <time>2019-05-04T12:15:11Z</time>
      </trkpt>
      <trkpt lat="44.02298" lon="6.84913">
        <ele>1190</ele>
        <time>2019-05-04T12:16:11Z</time>
      </trkpt>
      <trkpt lat="44.02284" lon="6.84899">
        <ele>1195</ele>
        <time>2019-05-04T12:17:11Z</time>
      </trkpt>
      <trkpt lat="44.02264" lon="6.84964">
        <ele>1209</ele>
        <time>2019-05-04T12:18:11Z</time>
      </trkpt>
      <trkpt lat="44.02223" lon="6.85">
        <ele>1222</ele>
        <time>2019-05-04T12:19:11Z</time>
      </trkpt>
      <trkpt lat="44.02183" lon="6.84982">
        <ele>1240</ele>
        <time>2019-05-04T12:20:11Z</time>
      </trkpt>
      <trkpt lat="44.02143" lon="6.84986">
        <ele>1243</ele>
        <time>2019-05-04T12:21:11Z</time>
      </trkpt>
      <trkpt lat="44.02104" lon="6.85039">
        <ele>1245</ele>
        <time>2019-05-04T12:22:11Z</time>
      </trkpt>
      <trkpt lat="44.02088" lon="6.85071">
        <ele>1252</ele>
        <time>2019-05-04T12:23:11Z</time>
      </trkpt>
      <trkpt lat="44.02072" lon="6.85138">
        <ele>1261</ele>
        <time>2019-05-04T12:24:11Z</time>
      </trkpt>
      <trkpt lat="44.02055" lon="6.85155">
        <ele>1264</ele>
        <time>2019-05-04T12:25:11Z</time>
      </trkpt>
      <trkpt lat="44.02031" lon="6.85212">
        <ele>1278</ele>
        <time>2019-05-04T12:26:11Z</time>
      </trkpt>
      <trkpt lat="44.02036" lon="6.85244">
        <ele>1285</ele>
        <time>2019-05-04T12:27:11Z</time>
      </trkpt>
      <trkpt lat="44.01957" lon="6.85407">
        <ele>1309</ele>
        <time>2019-05-04T12:28:11Z</time>
      </trkpt>
      <trkpt lat="44.01943" lon="6.85425">
        <ele>1311</ele>
        <time>2019-05-04T12:29:11Z</time>
      </trkpt>
      <trkpt lat="44.01914" lon="6.85449">
        <ele>1310</ele>
        <time>2019-05-04T12:30:11Z</time>
      </trkpt>
      <trkpt lat="44.01895" lon="6.85577">
        <ele>1327</ele>
        <time>2019-05-04T12:31:11Z</time>
      </trkpt>
      <trkpt lat="44.01863" lon="6.85642">
        <ele>1331</ele>
        <time>2019-05-04T12:32:11Z</time>
      </trkpt>
      <trkpt lat="44.01856" lon="6.85683">
        <ele>1336</ele>
        <time>2019-05-04T12:33:11Z</time>
      </trkpt>
      <trkpt lat="44.01847" lon="6.85698">
        <ele>1336</ele>
        <time>2019-05-04T12:34:11Z</time>
      </trkpt>
      <trkpt lat="44.01847" lon="6.85713">
        <ele>1338</ele>
        <time>2019-05-04T12:35:11Z</time>
      </trkpt>
      <trkpt lat="44.01845" lon="6.85728">
        <ele>1340</ele>
        <time>2019-05-04T12:36:11Z</time>
      </trkpt>
      <trkpt lat="44.0185" lon="6.85733">
        <ele>1342</ele>
        <time>2019-05-04T12:37:11Z</time>
      </trkpt>
      <trkpt lat="44.01845" lon="6.85751">
        <ele>1343</ele>
        <time>2019-05-04T12:38:11Z</time>
      </trkpt>
      <trkpt lat="44.01789" lon="6.85707">
        <ele>1337</ele>
        <time>2019-05-04T12:39:11Z</time>
      </trkpt>
      <trkpt lat="44.01744" lon="6.85687">
        <ele>1337</ele>
        <time>2019-05-04T12:40:11Z</time>
      </trkpt>
      <trkpt lat="44.01704" lon="6.85685">
        <ele>1340</ele>
        <time>2019-05-04T12:41:11Z</time>
      </trkpt>
      <trkpt lat="44.017" lon="6.857">
        <ele>1342</ele>
        <time>2019-05-04T12:42:11Z</time>
      </trkpt>
      <trkpt lat="44.01689" lon="6.85717">
        <ele>1344</ele>
        <time>2019-05-04T12:43:11Z</time>
      </trkpt>
      <trkpt lat="44.01677" lon="6.85755">
        <ele>1346</ele>
        <time>2019-05-04T12:44:11Z</time>
      </trkpt>
      <trkpt lat="44.01669" lon="6.85763">
        <ele>1345</ele>
        <time>2019-05-04T12:45:11Z</time>
      </trkpt>
      <trkpt lat="44.01618" lon="6.85835">
        <ele>1338</ele>
        <time>2019-05-04T12:46:11Z</time>
      </trkpt>
      <trkpt lat="44.01608" lon="6.85883">
        <ele>1332</ele>
        <time>2019-05-04T12:47:11Z</time>
      </trkpt>
      <trkpt lat="44.01615" lon="6.85891">
        <ele>1331</ele>
        <time>2019-05-04T12:48:11Z</time>
      </trkpt>
      <trkpt lat="44.01613" lon="6.85926">
        <ele>1326</ele>
        <time>2019-05-04T12:49:11Z</time>
      </trkpt>
      <trkpt lat="44.01529" lon="6.85995">
        <ele>1324</ele>
        <time>2019-05-04T12:50:11Z</time>
      </trkpt>
      <trkpt lat="44.01519" lon="6.86013">
        <ele>1322</ele>
        <time>2019-05-04T12:51:11Z</time>
      </trkpt>
      <trkpt lat="44.01541" lon="6.86003">
        <ele>1320</ele>
        <time>2019-05-04T12:52:11Z</time>
      </trkpt>
      <trkpt lat="44.01558" lon="6.85992">
        <ele>1319</ele>
        <time>2019-05-04T12:53:11Z</time>
      </trkpt>
      <trkpt lat="44.01585" lon="6.85985">
        <ele>1315</ele>
        <time>2019-05-04T12:54:11Z</time>
      </trkpt>
      <trkpt lat="44.01611" lon="6.86004">
        <ele>1310</ele>
        <time>2019-05-04T12:55:11Z</time>
      </trkpt>
      <trkpt lat="44.01654" lon="6.85986">
        <ele>1311</ele>
        <time>2019-05-04T12:56:11Z</time>
      </trkpt>
      <trkpt lat="44.01661" lon="6.85992">
        <ele>1309</ele>
        <time>2019-05-04T12:57:11Z</time>
      </trkpt>
      <trkpt lat="44.01675" lon="6.86014">
        <ele>1303</ele>
        <time>2019-05-04T12:58:11Z</time>
      </trkpt>
      <trkpt lat="44.01723" lon="6.86029">
        <ele>1305</ele>
        <time>2019-05-04T12:59:11Z</time>
      </trkpt>
      <trkpt lat="44.01744" lon="6.86052">
        <ele>1301</ele>
        <time>2019-05-04T13:00:11Z</time>
      </trkpt>
      <trkpt lat="44.01754" lon="6.86105">
        <ele>1287</ele>
        <time>2019-05-04T13:01:11Z</time>
      </trkpt>
      <trkpt lat="44.01766" lon="6.86134">
        <ele>1279</ele>
        <time>2019-05-04T13:02:11Z</time>
      </trkpt>
      <trkpt lat="44.01783" lon="6.8615">
        <ele>1274</ele>
        <time>2019-05-04T13:03:11Z</time>
      </trkpt>
      <trkpt lat="44.01843" lon="6.86156">
        <ele>1270</ele>
        <time>2019-05-04T13:04:11Z</time>
      </trkpt>
      <trkpt lat="44.01922" lon="6.86136">
        <ele>1272</ele>
        <time>2019-05-04T13:05:11Z</time>
      </trkpt>
      <trkpt lat="44.02004" lon="6.862">
        <ele>1250</ele>
        <time>2019-05-04T13:06:11Z</time>
      </trkpt>
      <trkpt lat="44.02045" lon="6.86208">
        <ele>1255</ele>
        <time>2019-05-04T13:07:11Z</time>
      </trkpt>
      <trkpt lat="44.02107" lon="6.86256">
        <ele>1239</ele>
        <time>2019-05-04T13:08:11Z</time>
      </trkpt>
      <trkpt lat="44.02191" lon="6.86278">
        <ele>1237</ele>
        <time>2019-05-04T13:09:11Z</time>
      </trkpt>
      <trkpt lat="44.02237" lon="6.86267">
        <ele>1249</ele>
        <time>2019-05-04T13:10:11Z</time>
      </trkpt>
      <trkpt lat="44.02292" lon="6.86312">
        <ele>1254</ele>
        <time>2019-05-04T13:11:11Z</time>
      </trkpt>
      <trkpt lat="44.02308" lon="6.8635">
        <ele>1251</ele>
        <time>2019-05-04T13:12:11Z</time>
      </trkpt>
      <trkpt lat="44.02315" lon="6.8639">
        <ele>1247</ele>
        <time>2019-05-04T13:13:11Z</time>
      </trkpt>
      <trkpt lat="44.02344" lon="6.86458">
        <ele>1243</ele>
        <time>2019-05-04T13:14:11Z</time>
      </trkpt>
      <trkpt lat="44.02374" lon="6.86482">
        <ele>1246</ele>
        <time>2019-05-04T13:15:11Z</time>
      </trkpt>
      <trkpt lat="44.02426" lon="6.86488">
        <ele>1262</ele>
        <time>2019-05-04T13:16:11Z</time>
      </trkpt>
      <trkpt lat="44.02446" lon="6.86476">
        <ele>1274</ele>
        <time>2019-05-04T13:17:11Z</time>
      </trkpt>
      <trkpt lat="44.02537" lon="6.86506">
        <ele>1280</ele>
        <time>2019-05-04T13:18:11Z</time>
      </trkpt>
      <trkpt lat="44.02543" lon="6.86499">
        <ele>1282</ele>
        <time>2019-05-04T13:19:11Z</time>
      </trkpt>
      <trkpt lat="44.0256" lon="6.86511">
        <ele>1282</ele>
        <time>2019-05-04T13:20:11Z</time>
      </trkpt>
      <trkpt lat="44.02576" lon="6.86502">
        <ele>1284</ele>
        <time>2019-05-04T13:21:11Z</time>
      </trkpt>
      <trkpt lat="44.02611" lon="6.86494">
        <ele>1279</ele>
        <time>2019-05-04T13:22:11Z</time>
      </trkpt>
      <trkpt lat="44.0262" lon="6.86495">
        <ele>1277</ele>
        <time>2019-05-04T13:23:11Z</time>
      </trkpt>
      <trkpt lat="44.02619" lon="6.86495">
        <ele>1277</ele>
        <time>2019-05-04T13:24:11Z</time>
      </trkpt>
      <trkpt lat="44.02624" lon="6.86479">
        <ele>1273</ele>
        <time>2019-05-04T13:25:11Z</time>
      </trkpt>
      <trkpt lat="44.02605" lon="6.86444">
        <ele>1275</ele>
        <time>2019-05-04T13:26:11Z</time>
      </trkpt>
      <trkpt lat="44.02623" lon="6.86422">
        <ele>1264</ele>
        <time>2019-05-04T13:27:11Z</time>
      </trkpt>
      <trkpt lat="44.02626" lon="6.86375">
        <ele>1259</ele>
        <time>2019-05-04T13:28:11Z</time>
      </trkpt>
      <trkpt lat="44.02644" lon="6.86305">
        <ele>1244</ele>
        <time>2019-05-04T13:29:11Z</time>
      </trkpt>
      <trkpt lat="44.02641" lon="6.86284">
        <ele>1246</ele>
        <time>2019-05-04T13:30:11Z</time>
      </trkpt>
      <trkpt lat="44.02659" lon="6.86246">
        <ele>1233</ele>
        <time>2019-05-04T13:31:11Z</time>
      </trkpt>
      <trkpt lat="44.02651" lon="6.86207">
        <ele>1235</ele>
        <time>2019-05-04T13:32:11Z</time>
      </trkpt>
      <trkpt lat="44.02628" lon="6.86176">
        <ele>1248</ele>
        <time>2019-05-04T13:33:11Z</time>
      </trkpt>
      <trkpt lat="44.02648" lon="6.86148">
        <ele>1235</ele>
        <time>2019-05-04T13:34:11Z</time>
      </trkpt>
      <trkpt lat="44.02645" lon="6.86123">
        <ele>1238</ele>
        <time>2019-05-04T13:35:11Z</time>
      </trkpt>
      <trkpt lat="44.02655" lon="6.86099">
        <ele>1232</ele>
        <time>2019-05-04T13:36:11Z</time>
      </trkpt>
      <trkpt lat="44.02666" lon="6.86051">
        <ele>1228</ele>
        <time>2019-05-04T13:37:11Z</time>
      </trkpt>
      <trkpt lat="44.02692" lon="6.86022">
        <ele>1214</ele>
        <time>2019-05-04T13:38:11Z</time>
      </trkpt>
      <trkpt lat="44.02692" lon="6.85996">
        <ele>1217</ele>
        <time>2019-05-04T13:39:11Z</time>
      </trkpt>
      <trkpt lat="44.027" lon="6.85973">
        <ele>1214</ele>
        <time>2019-05-04T13:40:11Z</time>
      </trkpt>
      <trkpt lat="44.02708" lon="6.85922">
        <ele>1214</ele>
        <time>2019-05-04T13:41:11Z</time>
      </trkpt>
      <trkpt lat="44.0272" lon="6.85899">
        <ele>1212</ele>
        <time>2019-05-04T13:42:11Z</time>
      </trkpt>
      <trkpt lat="44.02722" lon="6.85877">
        <ele>1217</ele>
        <time>2019-05-04T13:43:11Z</time>
      </trkpt>
      <trkpt lat="44.02736" lon="6.85849">
        <ele>1216</ele>
        <time>2019-05-04T13:44:11Z</time>
      </trkpt>
      <trkpt lat="44.02769" lon="6.85817">
        <ele>1205</ele>
        <time>2019-05-04T13:45:11Z</time>
      </trkpt>
      <trkpt lat="44.02788" lon="6.85781">
        <ele>1204</ele>
        <time>2019-05-04T13:46:11Z</time>
      </trkpt>
      <trkpt lat="44.02802" lon="6.85736">
        <ele>1204</ele>
        <time>2019-05-04T13:47:11Z</time>
      </trkpt>
      <trkpt lat="44.02831" lon="6.85683">
        <ele>1192</ele>
        <time>2019-05-04T13:48:11Z</time>
      </trkpt>
      <trkpt lat="44.02845" lon="6.85643">
        <ele>1181</ele>
        <time>2019-05-04T13:49:11Z</time>
      </trkpt>
      <trkpt lat="44.0284" lon="6.85603">
        <ele>1178</ele>
        <time>2019-05-04T13:50:11Z</time>
      </trkpt>
      <trkpt lat="44.02841" lon="6.85566">
        <ele>1169</ele>
        <time>2019-05-04T13:51:11Z</time>
      </trkpt>
      <trkpt lat="44.02826" lon="6.85494">
        <ele>1159</ele>
        <time>2019-05-04T13:52:11Z</time>
      </trkpt>
      <trkpt lat="44.02835" lon="6.85443">
        <ele>1149</ele>
        <time>2019-05-04T13:53:11Z</time>
      </trkpt>
      <trkpt lat="44.02837" lon="6.85407">
        <ele>1145</ele>
        <time>2019-05-04T13:54:11Z</time>
      </trkpt>
      <trkpt lat="44.02842" lon="6.85388">
        <ele>1140</ele>
        <time>2019-05-04T13:55:11Z</time>
      </trkpt>
      <trkpt lat="44.02856" lon="6.85368">
        <ele>1128</ele>
        <time>2019-05-04T13:56:11Z</time>
      </trkpt>
      <trkpt lat="44.02866" lon="6.85345">
        <ele>1118</ele>
        <time>2019-05-04T13:57:11Z</time>
      </trkpt>
      <trkpt lat="44.02865" lon="6.85352">
        <ele>1120</ele>
        <time>2019-05-04T13:58:11Z</time>
      </trkpt>
      <trkpt lat="44.02866" lon="6.85345">
        <ele>1118</ele>
        <time>2019-05-04T13:59:11Z</time>
      </trkpt>
      <trkpt lat="44.02849" lon="6.85296">
        <ele>1125</ele>
        <time>2019-05-04T14:00:11Z</time>
      </trkpt>
      <trkpt lat="44.0285" lon="6.85261">
        <ele>1121</ele>
        <time>2019-05-04T14:01:11Z</time>
      </trkpt>
      <trkpt lat="44.02844" lon="6.85223">
        <ele>1124</ele>
        <time>2019-05-04T14:02:11Z</time>
      </trkpt>
      <trkpt lat="44.02855" lon="6.85178">
        <ele>1115</ele>
        <time>2019-05-04T14:03:11Z</time>
      </trkpt>
      <trkpt lat="44.02882" lon="6.85149">
        <ele>1098</ele>
        <time>2019-05-04T14:04:11Z</time>
      </trkpt>
      <trkpt lat="44.02884" lon="6.85126">
        <ele>1100</ele>
        <time>2019-05-04T14:05:11Z</time>
      </trkpt>
      <trkpt lat="44.0289" lon="6.85104">
        <ele>1098</ele>
        <time>2019-05-04T14:06:11Z</time>
      </trkpt>
      <trkpt lat="44.02914" lon="6.8507">
        <ele>1082</ele>
        <time>2019-05-04T14:07:11Z</time>
      </trkpt>
      <trkpt lat="44.02927" lon="6.85019">
        <ele>1071</ele>
        <time>2019-05-04T14:08:11Z</time>
      </trkpt>
      <trkpt lat="44.02913" lon="6.84968">
        <ele>1074</ele>
        <time>2019-05-04T14:09:11Z</time>
      </trkpt>
      <trkpt lat="44.02886" lon="6.84934">
        <ele>1086</ele>
        <time>2019-05-04T14:10:11Z</time>
      </trkpt>
      <trkpt lat="44.02891" lon="6.84843">
        <ele>1082</ele>
        <time>2019-05-04T14:11:11Z</time>
      </trkpt>
      <trkpt lat="44.02923" lon="6.84749">
        <ele>1071</ele>
        <time>2019-05-04T14:12:11Z</time>
      </trkpt>
      <trkpt lat="44.02925" lon="6.84722">
        <ele>1075</ele>
        <time>2019-05-04T14:13:11Z</time>
      </trkpt>
      <trkpt lat="44.02931" lon="6.84691">
        <ele>1078</ele>
        <time>2019-05-04T14:14:11Z</time>
      </trkpt>
      <trkpt lat="44.02954" lon="6.84648">
        <ele>1079</ele>
        <time>2019-05-04T14:15:11Z</time>
      </trkpt>
      <trkpt lat="44.03003" lon="6.84615">
        <ele>1067</ele>
        <time>2019-05-04T14:16:11Z</time>
      </trkpt>
      <trkpt lat="44.03035" lon="6.84576">
        <ele>1061</ele>
        <time>2019-05-04T14:17:11Z</time>
      </trkpt>
      <trkpt lat="44.03046" lon="6.8456">
        <ele>1056</ele>
        <time>2019-05-04T14:18:11Z</time>
      </trkpt>
      <trkpt lat="44.03042" lon="6.84526">
        <ele>1063</ele>
        <time>2019-05-04T14:19:11Z</time>
      </trkpt>
      <trkpt lat="44.03054" lon="6.84443">
        <ele>1058</ele>
        <time>2019-05-04T14:20:11Z</time>
      </trkpt>
      <trkpt lat="44.03081" lon="6.84389">
        <ele>1041</ele>
        <time>2019-05-04T14:21:11Z</time>
      </trkpt>
      <trkpt lat="44.03063" lon="6.84322">
        <ele>1050</ele>
        <time>2019-05-04T14:22:11Z</time>
      </trkpt>
      <trkpt lat="44.03051" lon="6.84258">
        <ele>1049</ele>
        <time>2019-05-04T14:23:11Z</time>
      </trkpt>
      <trkpt lat="44.03051" lon="6.84209">
        <ele>1045</ele>
        <time>2019-05-04T14:24:11Z</time>
      </trkpt>
      <trkpt lat="44.03059" lon="6.84155">
        <ele>1037</ele>
        <time>2019-05-04T14:25:11Z</time>
      </trkpt>
      <trkpt lat="44.03048" lon="6.84085">
        <ele>1030</ele>
        <time>2019-05-04T14:26:11Z</time>
      </trkpt>
      <trkpt lat="44.03022" lon="6.84065">
        <ele>1034</ele>
        <time>2019-05-04T14:27:11Z</time>
      </trkpt>
      <trkpt lat="44.0301" lon="6.84033">
        <ele>1034</ele>
        <time>2019-05-04T14:28:11Z</time>
      </trkpt>
      <trkpt lat="44.03011" lon="6.83985">
        <ele>1027</ele>
        <time>2019-05-04T14:29:11Z</time>
      </trkpt>
      <trkpt lat="44.03002" lon="6.83944">
        <ele>1024</ele>
        <time>2019-05-04T14:30:11Z</time>
      </trkpt>
      <trkpt lat="44.03015" lon="6.83856">
        <ele>1004</ele>
        <time>2019-05-04T14:31:11Z</time>
      </trkpt>
      <trkpt lat="44.02992" lon="6.83799">
        <ele>995</ele>
        <time>2019-05-04T14:32:11Z</time>
      </trkpt>
      <trkpt lat="44.02985" lon="6.83794">
        <ele>993</ele>
        <time>2019-05-04T14:33:11Z</time>
      </trkpt>
      <trkpt lat="44.02964" lon="6.83801">
        <ele>995</ele>
        <time>2019-05-04T14:34:11Z</time>
      </trkpt>
      <trkpt lat="44.02916" lon="6.83795">
        <ele>992</ele>
        <time>2019-05-04T14:35:11Z</time>
      </trkpt>
      <trkpt lat="44.02884" lon="6.83777">
        <ele>980</ele>
        <time>2019-05-04T14:36:11Z</time>
      </trkpt>
      <trkpt lat="44.02851" lon="6.83767">
        <ele>972</ele>
        <time>2019-05-04T14:37:11Z</time>
      </trkpt>
      <trkpt lat="44.02804" lon="6.83756">
        <ele>959</ele>
        <time>2019-05-04T14:38:11Z</time>
      </trkpt>
      <trkpt lat="44.02793" lon="6.83767">
        <ele>960</ele>
        <time>2019-05-04T14:39:11Z</time>
      </trkpt>
      <trkpt lat="44.02767" lon="6.8382">
        <ele>970</ele>
        <time>2019-05-04T14:40:11Z</time>
      </trkpt>
      <trkpt lat="44.02747" lon="6.83839">
        <ele>969</ele>
        <time>2019-05-04T14:41:11Z</time>
      </trkpt>
      <trkpt lat="44.02728" lon="6.83837">
        <ele>965</ele>
        <time>2019-05-04T14:42:11Z</time>
      </trkpt>
      <trkpt lat="44.02702" lon="6.83823">
        <ele>956</ele>
        <time>2019-05-04T14:43:11Z</time>
      </trkpt>
      <trkpt lat="44.02678" lon="6.83827">
        <ele>952</ele>
        <time>2019-05-04T14:44:11Z</time>
      </trkpt>
      <trkpt lat="44.02673" lon="6.83823">
        <ele>950</ele>
        <time>2019-05-04T14:45:11Z</time>
      </trkpt>
      <trkpt lat="44.02673" lon="6.83816">
        <ele>948</ele>
        <time>2019-05-04T14:46:11Z</time>
      </trkpt>
      <trkpt lat="44.02711" lon="6.83782">
        <ele>946</ele>
        <time>2019-05-04T14:47:11Z</time>
      </trkpt>
      <trkpt lat="44.02749" lon="6.83766">
        <ele>949</ele>
        <time>2019-05-04T14:48:11Z</time>
      </trkpt>
      <trkpt lat="44.02753" lon="6.83756">
        <ele>947</ele>
        <time>2019-05-04T14:49:11Z</time>
      </trkpt>
      <trkpt lat="44.02747" lon="6.83751">
        <ele>945</ele>
        <time>2019-05-04T14:50:11Z</time>
      </trkpt>
      <trkpt lat="44.02721" lon="6.83752">
        <ele>940</ele>
        <time>2019-05-04T14:51:11Z</time>
      </trkpt>
      <trkpt lat="44.02704" lon="6.83741">
        <ele>933</ele>
        <time>2019-05-04T14:52:11Z</time>
      </trkpt>
      <trkpt lat="44.02695" lon="6.83741">
        <ele>932</ele>
        <time>2019-05-04T14:53:11Z</time>
      </trkpt>
      <trkpt lat="44.02668" lon="6.83759">
        <ele>932</ele>
        <time>2019-05-04T14:54:11Z</time>
      </trkpt>
      <trkpt lat="44.02688" lon="6.83717">
        <ele>923</ele>
        <time>2019-05-04T14:55:11Z</time>
      </trkpt>
      <trkpt lat="44.027" lon="6.83704">
        <ele>921</ele>
        <time>2019-05-04T14:56:11Z</time>
      </trkpt>
      <trkpt lat="44.02714" lon="6.83699">
        <ele>922</ele>
        <time>2019-05-04T14:57:11Z</time>
      </trkpt>
      <trkpt lat="44.02715" lon="6.8369">
        <ele>920</ele>
        <time>2019-05-04T14:58:11Z</time>
      </trkpt>
      <trkpt lat="44.02709" lon="6.83683">
        <ele>917</ele>
        <time>2019-05-04T14:59:11Z</time>
      </trkpt>
      <trkpt lat="44.02724" lon="6.83681">
        <ele>919</ele>
        <time>2019-05-04T15:00:11Z</time>
      </trkpt>
      <trkpt lat="44.02723" lon="6.83668">
        <ele>915</ele>
        <time>2019-05-04T15:01:11Z</time>
      </trkpt>
      <trkpt lat="44.02742" lon="6.83651">
        <ele>912</ele>
        <time>2019-05-04T15:02:11Z</time>
      </trkpt>
      <trkpt lat="44.02761" lon="6.83604">
        <ele>897</ele>
        <time>2019-05-04T15:03:11Z</time>
      </trkpt>
      <trkpt lat="44.02826" lon="6.83559">
        <ele>877</ele>
        <time>2019-05-04T15:04:11Z</time>
      </trkpt>
      <trkpt lat="44.02832" lon="6.83556">
        <ele>876</ele>
        <time>2019-05-04T15:05:11Z</time>
      </trkpt>
      <trkpt lat="44.02848" lon="6.83561">
        <ele>881</ele>
        <time>2019-05-04T15:06:11Z</time>
      </trkpt>
      <trkpt lat="44.02858" lon="6.83542">
        <ele>876</ele>
        <time>2019-05-04T15:07:11Z</time>
      </trkpt>
      <trkpt lat="44.02878" lon="6.83544">
        <ele>881</ele>
        <time>2019-05-04T15:08:11Z</time>
      </trkpt>
      <trkpt lat="44.02886" lon="6.83552">
        <ele>886</ele>
        <time>2019-05-04T15:09:11Z</time>
      </trkpt>
      <trkpt lat="44.02896" lon="6.83536">
        <ele>883</ele>
        <time>2019-05-04T15:10:11Z</time>
      </trkpt>
      <trkpt lat="44.02892" lon="6.83485">
        <ele>865</ele>
        <time>2019-05-04T15:11:11Z</time>
      </trkpt>
      <trkpt lat="44.0288" lon="6.83457">
        <ele>850</ele>
        <time>2019-05-04T15:12:11Z</time>
      </trkpt>
      <trkpt lat="44.02907" lon="6.83424">
        <ele>850</ele>
        <time>2019-05-04T15:13:11Z</time>
      </trkpt>
      <trkpt lat="44.02921" lon="6.83364">
        <ele>836</ele>
        <time>2019-05-04T15:14:11Z</time>
      </trkpt>
      <trkpt lat="44.02918" lon="6.83341">
        <ele>827</ele>
        <time>2019-05-04T15:15:11Z</time>
      </trkpt>
      <trkpt lat="44.02939" lon="6.83307">
        <ele>826</ele>
        <time>2019-05-04T15:16:11Z</time>
      </trkpt>
      <trkpt lat="44.02937" lon="6.83248">
        <ele>809</ele>
        <time>2019-05-04T15:17:11Z</time>
      </trkpt>
      <trkpt lat="44.02995" lon="6.8313">
        <ele>795</ele>
        <time>2019-05-04T15:18:11Z</time>
      </trkpt>
      <trkpt lat="44.02993" lon="6.83037">
        <ele>776</ele>
        <time>2019-05-04T15:19:11Z</time>
      </trkpt>
      <trkpt lat="44.02982" lon="6.83045">
        <ele>774</ele>
        <time>2019-05-04T15:20:11Z</time>
      </trkpt>
      <trkpt lat="44.02981" lon="6.83032">
        <ele>771</ele>
        <time>2019-05-04T15:21:11Z</time>
      </trkpt>
      <trkpt lat="44.02994" lon="6.82988">
        <ele>763</ele>
        <time>2019-05-04T15:22:11Z</time>
      </trkpt>
      <trkpt lat="44.02992" lon="6.82982">
        <ele>760</ele>
        <time>2019-05-04T15:23:11Z</time>
      </trkpt>
      <trkpt lat="44.03003" lon="6.82953">
        <ele>751</ele>
        <time>2019-05-04T15:24:11Z</time>
      </trkpt>
      <trkpt lat="44.03024" lon="6.82936">
        <ele>739</ele>
        <time>2019-05-04T15:25:11Z</time>
      </trkpt>
      <trkpt lat="44.0302" lon="6.82918">
        <ele>734</ele>
        <time>2019-05-04T15:26:11Z</time>
      </trkpt>
      <trkpt lat="44.03045" lon="6.82913">
        <ele>726</ele>
        <time>2019-05-04T15:27:11Z</time>
      </trkpt>
      <trkpt lat="44.0304" lon="6.82898">
        <ele>723</ele>
        <time>2019-05-04T15:28:11Z</time>
      </trkpt>
      <trkpt lat="44.03048" lon="6.82894">
        <ele>720</ele>
        <time>2019-05-04T15:29:11Z</time>
      </trkpt>
      <trkpt lat="44.03051" lon="6.82887">
        <ele>717</ele>
        <time>2019-05-04T15:30:11Z</time>
      </trkpt>
      <trkpt lat="44.03049" lon="6.82876">
        <ele>714</ele>
        <time>2019-05-04T15:31:11Z</time>
      </trkpt>
      <trkpt lat="44.0303" lon="6.82875">
        <ele>718</ele>
        <time>2019-05-04T15:32:11Z</time>
      </trkpt>
      <trkpt lat="44.03045" lon="6.8285">
        <ele>706</ele>
        <time>2019-05-04T15:33:11Z</time>
      </trkpt>
      <trkpt lat="44.03034" lon="6.82847">
        <ele>708</ele>
        <time>2019-05-04T15:34:11Z</time>
      </trkpt>
      <trkpt lat="44.03014" lon="6.82852">
        <ele>713</ele>
        <time>2019-05-04T15:35:11Z</time>
      </trkpt>
      <trkpt lat="44.03011" lon="6.82851">
        <ele>714</ele>
        <time>2019-05-04T15:36:11Z</time>
      </trkpt>
      <trkpt lat="44.0303" lon="6.82809">
        <ele>696</ele>
        <time>2019-05-04T15:37:11Z</time>
      </trkpt>
      <trkpt lat="44.03049" lon="6.8279">
        <ele>687</ele>
        <time>2019-05-04T15:38:11Z</time>
      </trkpt>
      <trkpt lat="44.03043" lon="6.8278">
        <ele>685</ele>
        <time>2019-05-04T15:39:11Z</time>
      </trkpt>
      <trkpt lat="44.03064" lon="6.82777">
        <ele>681</ele>
        <time>2019-05-04T15:40:11Z</time>
      </trkpt>
      <trkpt lat="44.03046" lon="6.82762">
        <ele>680</ele>
        <time>2019-05-04T15:41:11Z</time>
      </trkpt>
      <trkpt lat="44.03018" lon="6.82764">
        <ele>684</ele>
        <time>2019-05-04T15:42:11Z</time>
      </trkpt>
      <trkpt lat="44.03045" lon="6.8273">
        <ele>671</ele>
        <time>2019-05-04T15:43:11Z</time>
      </trkpt>
      <trkpt lat="44.03039" lon="6.82725">
        <ele>671</ele>
        <time>2019-05-04T15:44:11Z</time>
      </trkpt>
      <trkpt lat="44.03004" lon="6.82723">
        <ele>674</ele>
        <time>2019-05-04T15:45:11Z</time>
      </trkpt>
      <trkpt lat="44.02993" lon="6.82726">
        <ele>675</ele>
        <time>2019-05-04T15:46:11Z</time>
      </trkpt>
      <trkpt lat="44.0296" lon="6.8276">
        <ele>684</ele>
        <time>2019-05-04T15:47:11Z</time>
      </trkpt>
      <trkpt lat="44.02955" lon="6.82753">
        <ele>682</ele>
        <time>2019-05-04T15:48:11Z</time>
      </trkpt>
      <trkpt lat="44.02995" lon="6.82698">
        <ele>668</ele>
        <time>2019-05-04T15:49:11Z</time>
      </trkpt>
      <trkpt lat="44.03025" lon="6.82696">
        <ele>665</ele>
        <time>2019-05-04T15:50:11Z</time>
      </trkpt>
      <trkpt lat="44.03093" lon="6.8255">
        <ele>669</ele>
        <time>2019-05-04T15:51:11Z</time>
      </trkpt>
      <trkpt lat="44.03022" lon="6.82396">
        <ele>667</ele>
        <time>2019-05-04T15:52:11Z</time>
      </trkpt>
      <trkpt lat="44.03007" lon="6.82334">
        <ele>668</ele>
        <time>2019-05-04T15:53:11Z</time>
      </trkpt>
      <trkpt lat="44.02988" lon="6.823">
        <ele>671</ele>
        <time>2019-05-04T15:54:11Z</time>
      </trkpt>
      <trkpt lat="44.02946" lon="6.82256">
        <ele>666</ele>
        <time>2019-05-04T15:55:11Z</time>
      </trkpt>
      <trkpt lat="44.02924" lon="6.82213">
        <ele>667</ele>
        <time>2019-05-04T15:56:11Z</time>
      </trkpt>
      <trkpt lat="44.0288" lon="6.8214">
        <ele>665</ele>
        <time>2019-05-04T15:57:11Z</time>
      </trkpt>
      <trkpt lat="44.02856" lon="6.82088">
        <ele>661</ele>
        <time>2019-05-04T15:58:11Z</time>
      </trkpt>
      <trkpt lat="44.02817" lon="6.82065">
        <ele>652</ele>
        <time>2019-05-04T15:59:11Z</time>
      </trkpt>
      <trkpt lat="44.02786" lon="6.8204">
        <ele>649</ele>
        <time>2019-05-04T16:00:11Z</time>
      </trkpt>
      <trkpt lat="44.0274" lon="6.81909">
        <ele>644</ele>
        <time>2019-05-04T16:01:11Z</time>
      </trkpt>
      <trkpt lat="44.02732" lon="6.81854">
        <ele>643</ele>
        <time>2019-05-04T16:02:11Z</time>
      </trkpt>
      <trkpt lat="44.0271" lon="6.81787">
        <ele>645</ele>
        <time>2019-05-04T16:03:11Z</time>
      </trkpt>
      <trkpt lat="44.02714" lon="6.81769">
        <ele>646</ele>
        <time>2019-05-04T16:04:11Z</time>
      </trkpt>
      <trkpt lat="44.02737" lon="6.81744">
        <ele>650</ele>
        <time>2019-05-04T16:05:11Z</time>
      </trkpt>
      <trkpt lat="44.02745" lon="6.8174">
        <ele>651</ele>
        <time>2019-05-04T16:06:11Z</time>
      </trkpt>
      <trkpt lat="44.02745" lon="6.8174">
        <ele>651</ele>
        <time>2019-05-04T16:07:11Z</time>
      </trkpt>
      <trkpt lat="44.02737" lon="6.81658">
        <ele>660</ele>
        <time>2019-05-04T16:08:11Z</time>
      </trkpt>
      <trkpt lat="44.02737" lon="6.81658">
        <ele>660</ele>
        <time>2019-05-04T16:09:11Z</time>
      </trkpt>
      <trkpt lat="44.02629" lon="6.81487">
        <ele>654</ele>
        <time>2019-05-04T16:10:11Z</time>
      </trkpt>
      <trkpt lat="44.0263" lon="6.81439">
        <ele>661</ele>
        <time>2019-05-04T16:11:11Z</time>
      </trkpt>
      <trkpt lat="44.0263" lon="6.81414">
        <ele>664</ele>
        <time>2019-05-04T16:12:11Z</time>
      </trkpt>
      <trkpt lat="44.02632" lon="6.814">
        <ele>665</ele>
        <time>2019-05-04T16:13:11Z</time>
      </trkpt>
      <trkpt lat="44.02643" lon="6.81384">
        <ele>668</ele>
        <time>2019-05-04T16:14:11Z</time>
      </trkpt>
      <trkpt lat="44.02652" lon="6.81346">
        <ele>670</ele>
        <time>2019-05-04T16:15:11Z</time>
      </trkpt>
      <trkpt lat="44.02648" lon="6.81342">
        <ele>670</ele>
        <time>2019-05-04T16:16:11Z</time>
      </trkpt>
      <trkpt lat="44.02649" lon="6.81339">
        <ele>670</ele>
        <time>2019-05-04T16:17:11Z</time>
      </trkpt>
    </trkseg>
  </trk>
</gpx>